sensor_id;sensor_type;location;lat;lon;timestamp;P1;durP1;ratioP1;P2;durP2;ratioP2
72117;SDS011;59992;47.490;8.736;2022-12-07T00:02:30;27.30;;;12.70;;
72117;SDS011;59992;47.490;8.736;2022-12-07T00:05:20;29.40;;;12.90;;
72117;SDS011;59992;47.490;8.736;2022-12-07T00:08:11;35.30;;;14.60;;
72117;SDS011;59992;47.490;8.736;2022-12-07T00:11:02;33.90;;;14.30;;
72117;SDS011;59992;47.490;8.736;2022-12-07T00:13:54;30.90;;;14.00;;
72117;SDS011;59992;47.490;8.736;2022-12-07T00:16:48;33.30;;;13.60;;
72117;SDS011;59992;47.490;8.736;2022-12-07T00:19:39;26.70;;;12.00;;
72117;SDS011;59992;47.490;8.736;2022-12-07T00:22:29;28.70;;;13.40;;
72117;SDS011;59992;47.490;8.736;2022-12-07T00:25:19;31.40;;;13.80;;
72117;SDS011;59992;47.490;8.736;2022-12-07T00:28:09;31.40;;;13.70;;
72117;SDS011;59992;47.490;8.736;2022-12-07T00:31:01;30.60;;;13.60;;
72117;SDS011;59992;47.490;8.736;2022-12-07T00:33:52;28.60;;;12.90;;
72117;SDS011;59992;47.490;8.736;2022-12-07T00:36:43;34.70;;;13.60;;
72117;SDS011;59992;47.490;8.736;2022-12-07T00:39:33;30.10;;;13.90;;
72117;SDS011;59992;47.490;8.736;2022-12-07T00:42:23;29.90;;;14.20;;
72117;SDS011;59992;47.490;8.736;2022-12-07T00:45:13;29.70;;;14.30;;
72117;SDS011;59992;47.490;8.736;2022-12-07T00:48:04;29.60;;;13.60;;
72117;SDS011;59992;47.490;8.736;2022-12-07T00:50:54;28.60;;;13.30;;
72117;SDS011;59992;47.490;8.736;2022-12-07T00:53:45;28.60;;;13.40;;
72117;SDS011;59992;47.490;8.736;2022-12-07T00:56:34;27.80;;;13.20;;
72117;SDS011;59992;47.490;8.736;2022-12-07T00:59:24;29.30;;;13.40;;
72117;SDS011;59992;47.490;8.736;2022-12-07T01:02:14;27.60;;;13.60;;
72117;SDS011;59992;47.490;8.736;2022-12-07T01:05:06;31.90;;;13.10;;
72117;SDS011;59992;47.490;8.736;2022-12-07T01:07:56;27.90;;;13.00;;
72117;SDS011;59992;47.490;8.736;2022-12-07T01:10:47;29.00;;;13.10;;
72117;SDS011;59992;47.490;8.736;2022-12-07T01:13:38;28.20;;;13.50;;
72117;SDS011;59992;47.490;8.736;2022-12-07T01:16:29;28.30;;;12.80;;
72117;SDS011;59992;47.490;8.736;2022-12-07T01:19:20;31.30;;;14.10;;
72117;SDS011;59992;47.490;8.736;2022-12-07T01:22:10;27.30;;;12.50;;
72117;SDS011;59992;47.490;8.736;2022-12-07T01:25:01;30.70;;;13.10;;
72117;SDS011;59992;47.490;8.736;2022-12-07T01:27:52;30.20;;;13.80;;
72117;SDS011;59992;47.490;8.736;2022-12-07T01:30:42;28.60;;;13.50;;
72117;SDS011;59992;47.490;8.736;2022-12-07T01:33:32;28.40;;;13.10;;
72117;SDS011;59992;47.490;8.736;2022-12-07T01:36:25;30.60;;;13.20;;
72117;SDS011;59992;47.490;8.736;2022-12-07T01:39:16;33.80;;;14.70;;
72117;SDS011;59992;47.490;8.736;2022-12-07T01:42:09;33.10;;;13.40;;
72117;SDS011;59992;47.490;8.736;2022-12-07T01:48:26;32.20;;;13.70;;
72117;SDS011;59992;47.490;8.736;2022-12-07T01:51:20;30.90;;;13.30;;
72117;SDS011;59992;47.490;8.736;2022-12-07T01:54:11;32.30;;;13.30;;
72117;SDS011;59992;47.490;8.736;2022-12-07T01:57:04;30.60;;;13.10;;
72117;SDS011;59992;47.490;8.736;2022-12-07T01:59:57;30.40;;;13.80;;
72117;SDS011;59992;47.490;8.736;2022-12-07T02:02:51;33.90;;;14.30;;
72117;SDS011;59992;47.490;8.736;2022-12-07T02:05:45;28.90;;;13.40;;
72117;SDS011;59992;47.490;8.736;2022-12-07T02:08:37;27.70;;;12.80;;
72117;SDS011;59992;47.490;8.736;2022-12-07T02:11:28;32.80;;;14.50;;
72117;SDS011;59992;47.490;8.736;2022-12-07T02:14:18;31.60;;;13.80;;
72117;SDS011;59992;47.490;8.736;2022-12-07T02:17:11;32.80;;;13.70;;
72117;SDS011;59992;47.490;8.736;2022-12-07T02:20:15;29.10;;;13.40;;
72117;SDS011;59992;47.490;8.736;2022-12-07T02:23:18;27.50;;;12.10;;
72117;SDS011;59992;47.490;8.736;2022-12-07T02:26:31;26.60;;;12.70;;
72117;SDS011;59992;47.490;8.736;2022-12-07T02:29:34;27.10;;;12.10;;
72117;SDS011;59992;47.490;8.736;2022-12-07T02:32:27;32.10;;;13.60;;
72117;SDS011;59992;47.490;8.736;2022-12-07T02:35:28;29.30;;;12.60;;
72117;SDS011;59992;47.490;8.736;2022-12-07T02:38:23;29.60;;;12.70;;
72117;SDS011;59992;47.490;8.736;2022-12-07T02:41:18;30.00;;;12.80;;
72117;SDS011;59992;47.490;8.736;2022-12-07T02:44:12;29.00;;;13.30;;
72117;SDS011;59992;47.490;8.736;2022-12-07T02:47:06;29.70;;;13.30;;
72117;SDS011;59992;47.490;8.736;2022-12-07T02:50:01;28.10;;;12.30;;
72117;SDS011;59992;47.490;8.736;2022-12-07T02:52:53;28.90;;;11.90;;
72117;SDS011;59992;47.490;8.736;2022-12-07T02:55:43;31.20;;;12.60;;
72117;SDS011;59992;47.490;8.736;2022-12-07T02:58:37;29.60;;;12.50;;
72117;SDS011;59992;47.490;8.736;2022-12-07T03:01:40;29.00;;;12.70;;
72117;SDS011;59992;47.490;8.736;2022-12-07T03:04:41;28.40;;;12.70;;
72117;SDS011;59992;47.490;8.736;2022-12-07T03:07:37;23.70;;;11.20;;
72117;SDS011;59992;47.490;8.736;2022-12-07T03:10:35;26.30;;;13.00;;
72117;SDS011;59992;47.490;8.736;2022-12-07T03:13:38;29.50;;;12.70;;
72117;SDS011;59992;47.490;8.736;2022-12-07T03:16:35;27.80;;;11.90;;
72117;SDS011;59992;47.490;8.736;2022-12-07T03:19:28;23.20;;;10.60;;
72117;SDS011;59992;47.490;8.736;2022-12-07T03:22:23;30.00;;;12.70;;
72117;SDS011;59992;47.490;8.736;2022-12-07T03:25:17;29.70;;;12.20;;
72117;SDS011;59992;47.490;8.736;2022-12-07T03:28:07;25.40;;;12.00;;
72117;SDS011;59992;47.490;8.736;2022-12-07T03:31:00;27.90;;;12.50;;
72117;SDS011;59992;47.490;8.736;2022-12-07T03:33:59;27.80;;;12.20;;
72117;SDS011;59992;47.490;8.736;2022-12-07T03:36:55;31.00;;;13.70;;
72117;SDS011;59992;47.490;8.736;2022-12-07T03:39:53;25.70;;;12.60;;
72117;SDS011;59992;47.490;8.736;2022-12-07T03:42:50;24.20;;;11.90;;
72117;SDS011;59992;47.490;8.736;2022-12-07T03:45:43;28.10;;;11.80;;
72117;SDS011;59992;47.490;8.736;2022-12-07T03:48:41;28.20;;;12.30;;
72117;SDS011;59992;47.490;8.736;2022-12-07T03:51:40;28.30;;;11.30;;
72117;SDS011;59992;47.490;8.736;2022-12-07T03:54:36;24.60;;;10.40;;
72117;SDS011;59992;47.490;8.736;2022-12-07T03:57:30;27.40;;;11.80;;
72117;SDS011;59992;47.490;8.736;2022-12-07T04:00:22;27.60;;;12.20;;
72117;SDS011;59992;47.490;8.736;2022-12-07T04:03:14;27.00;;;12.20;;
72117;SDS011;59992;47.490;8.736;2022-12-07T04:06:04;25.10;;;11.50;;
72117;SDS011;59992;47.490;8.736;2022-12-07T04:08:55;28.10;;;13.50;;
72117;SDS011;59992;47.490;8.736;2022-12-07T04:11:46;28.20;;;12.00;;
72117;SDS011;59992;47.490;8.736;2022-12-07T04:14:36;26.90;;;12.50;;
72117;SDS011;59992;47.490;8.736;2022-12-07T04:17:27;24.70;;;12.00;;
72117;SDS011;59992;47.490;8.736;2022-12-07T04:20:18;29.40;;;12.70;;
72117;SDS011;59992;47.490;8.736;2022-12-07T04:23:08;30.40;;;12.20;;
72117;SDS011;59992;47.490;8.736;2022-12-07T04:25:58;30.40;;;11.80;;
72117;SDS011;59992;47.490;8.736;2022-12-07T04:28:48;26.20;;;12.10;;
72117;SDS011;59992;47.490;8.736;2022-12-07T04:31:38;26.00;;;11.60;;
72117;SDS011;59992;47.490;8.736;2022-12-07T04:34:28;27.90;;;12.90;;
72117;SDS011;59992;47.490;8.736;2022-12-07T04:37:19;29.00;;;12.40;;
72117;SDS011;59992;47.490;8.736;2022-12-07T04:40:10;27.70;;;12.30;;
72117;SDS011;59992;47.490;8.736;2022-12-07T04:43:01;28.00;;;12.80;;
72117;SDS011;59992;47.490;8.736;2022-12-07T04:45:52;31.50;;;13.20;;
72117;SDS011;59992;47.490;8.736;2022-12-07T04:48:42;29.40;;;12.20;;
72117;SDS011;59992;47.490;8.736;2022-12-07T04:51:32;31.20;;;13.20;;
72117;SDS011;59992;47.490;8.736;2022-12-07T04:54:22;29.30;;;13.20;;
72117;SDS011;59992;47.490;8.736;2022-12-07T04:57:22;30.80;;;13.20;;
72117;SDS011;59992;47.490;8.736;2022-12-07T05:00:12;28.10;;;12.90;;
72117;SDS011;59992;47.490;8.736;2022-12-07T05:03:03;27.50;;;12.80;;
72117;SDS011;59992;47.490;8.736;2022-12-07T05:05:53;31.00;;;13.80;;
72117;SDS011;59992;47.490;8.736;2022-12-07T05:08:43;28.50;;;12.40;;
72117;SDS011;59992;47.490;8.736;2022-12-07T05:11:34;26.40;;;12.40;;
72117;SDS011;59992;47.490;8.736;2022-12-07T05:14:27;29.20;;;12.30;;
72117;SDS011;59992;47.490;8.736;2022-12-07T05:17:17;32.50;;;14.20;;
72117;SDS011;59992;47.490;8.736;2022-12-07T05:20:08;28.50;;;12.80;;
72117;SDS011;59992;47.490;8.736;2022-12-07T05:22:59;29.70;;;12.10;;
72117;SDS011;59992;47.490;8.736;2022-12-07T05:25:50;31.10;;;12.90;;
72117;SDS011;59992;47.490;8.736;2022-12-07T05:28:40;30.80;;;13.00;;
72117;SDS011;59992;47.490;8.736;2022-12-07T05:31:30;35.70;;;13.30;;
72117;SDS011;59992;47.490;8.736;2022-12-07T05:34:21;31.50;;;13.70;;
72117;SDS011;59992;47.490;8.736;2022-12-07T05:37:12;31.20;;;13.50;;
72117;SDS011;59992;47.490;8.736;2022-12-07T05:40:02;31.00;;;12.90;;
72117;SDS011;59992;47.490;8.736;2022-12-07T05:42:54;29.10;;;13.40;;
72117;SDS011;59992;47.490;8.736;2022-12-07T05:45:44;31.50;;;13.00;;
72117;SDS011;59992;47.490;8.736;2022-12-07T05:48:34;31.30;;;12.40;;
72117;SDS011;59992;47.490;8.736;2022-12-07T05:51:24;30.50;;;13.20;;
72117;SDS011;59992;47.490;8.736;2022-12-07T05:54:15;32.20;;;13.80;;
72117;SDS011;59992;47.490;8.736;2022-12-07T05:57:06;29.20;;;12.20;;
72117;SDS011;59992;47.490;8.736;2022-12-07T05:59:56;30.60;;;13.00;;
72117;SDS011;59992;47.490;8.736;2022-12-07T06:02:46;30.80;;;12.60;;
72117;SDS011;59992;47.490;8.736;2022-12-07T06:05:36;35.10;;;13.60;;
72117;SDS011;59992;47.490;8.736;2022-12-07T06:08:27;31.60;;;14.00;;
72117;SDS011;59992;47.490;8.736;2022-12-07T06:11:17;31.60;;;14.50;;
72117;SDS011;59992;47.490;8.736;2022-12-07T06:14:25;32.40;;;12.80;;
72117;SDS011;59992;47.490;8.736;2022-12-07T06:17:16;34.30;;;14.00;;
72117;SDS011;59992;47.490;8.736;2022-12-07T06:20:06;32.00;;;13.80;;
72117;SDS011;59992;47.490;8.736;2022-12-07T06:22:57;32.80;;;14.90;;
72117;SDS011;59992;47.490;8.736;2022-12-07T06:25:47;33.20;;;14.70;;
72117;SDS011;59992;47.490;8.736;2022-12-07T06:28:37;34.40;;;13.70;;
72117;SDS011;59992;47.490;8.736;2022-12-07T06:31:28;31.00;;;13.80;;
72117;SDS011;59992;47.490;8.736;2022-12-07T06:34:18;34.40;;;14.70;;
72117;SDS011;59992;47.490;8.736;2022-12-07T06:37:10;36.50;;;14.20;;
72117;SDS011;59992;47.490;8.736;2022-12-07T06:40:01;34.40;;;15.00;;
72117;SDS011;59992;47.490;8.736;2022-12-07T06:42:52;39.00;;;13.80;;
72117;SDS011;59992;47.490;8.736;2022-12-07T06:45:42;33.00;;;14.90;;
72117;SDS011;59992;47.490;8.736;2022-12-07T06:48:33;41.70;;;15.70;;
72117;SDS011;59992;47.490;8.736;2022-12-07T06:51:24;38.10;;;14.90;;
72117;SDS011;59992;47.490;8.736;2022-12-07T06:54:14;33.20;;;14.50;;
72117;SDS011;59992;47.490;8.736;2022-12-07T06:57:05;38.10;;;15.30;;
72117;SDS011;59992;47.490;8.736;2022-12-07T06:59:55;36.40;;;14.60;;
72117;SDS011;59992;47.490;8.736;2022-12-07T07:02:45;36.20;;;15.40;;
72117;SDS011;59992;47.490;8.736;2022-12-07T07:05:35;36.00;;;15.00;;
72117;SDS011;59992;47.490;8.736;2022-12-07T07:08:26;38.10;;;15.10;;
72117;SDS011;59992;47.490;8.736;2022-12-07T07:11:16;34.70;;;14.80;;
72117;SDS011;59992;47.490;8.736;2022-12-07T07:14:07;35.70;;;14.90;;
72117;SDS011;59992;47.490;8.736;2022-12-07T07:16:57;37.60;;;15.50;;
72117;SDS011;59992;47.490;8.736;2022-12-07T07:19:48;38.50;;;14.90;;
72117;SDS011;59992;47.490;8.736;2022-12-07T07:22:38;37.10;;;14.20;;
72117;SDS011;59992;47.490;8.736;2022-12-07T07:25:28;41.20;;;15.80;;
72117;SDS011;59992;47.490;8.736;2022-12-07T07:28:19;35.60;;;16.50;;
72117;SDS011;59992;47.490;8.736;2022-12-07T07:31:09;35.80;;;15.70;;
72117;SDS011;59992;47.490;8.736;2022-12-07T07:33:59;33.80;;;14.60;;
72117;SDS011;59992;47.490;8.736;2022-12-07T07:36:50;40.30;;;15.90;;
72117;SDS011;59992;47.490;8.736;2022-12-07T07:39:40;41.40;;;16.00;;
72117;SDS011;59992;47.490;8.736;2022-12-07T07:42:30;35.10;;;14.60;;
72117;SDS011;59992;47.490;8.736;2022-12-07T07:45:21;35.40;;;15.60;;
72117;SDS011;59992;47.490;8.736;2022-12-07T07:48:12;35.90;;;15.10;;
72117;SDS011;59992;47.490;8.736;2022-12-07T07:51:06;33.90;;;14.20;;
72117;SDS011;59992;47.490;8.736;2022-12-07T07:53:56;36.60;;;14.40;;
72117;SDS011;59992;47.490;8.736;2022-12-07T07:56:46;41.60;;;16.20;;
72117;SDS011;59992;47.490;8.736;2022-12-07T07:59:37;36.90;;;15.40;;
72117;SDS011;59992;47.490;8.736;2022-12-07T08:02:28;33.80;;;14.40;;
72117;SDS011;59992;47.490;8.736;2022-12-07T08:05:18;34.70;;;15.30;;
72117;SDS011;59992;47.490;8.736;2022-12-07T08:08:08;32.80;;;14.10;;
72117;SDS011;59992;47.490;8.736;2022-12-07T08:10:58;36.00;;;15.70;;
72117;SDS011;59992;47.490;8.736;2022-12-07T08:13:49;36.60;;;14.80;;
72117;SDS011;59992;47.490;8.736;2022-12-07T08:16:39;35.60;;;15.90;;
72117;SDS011;59992;47.490;8.736;2022-12-07T08:19:29;35.70;;;15.60;;
72117;SDS011;59992;47.490;8.736;2022-12-07T08:22:19;34.70;;;14.50;;
72117;SDS011;59992;47.490;8.736;2022-12-07T08:25:11;37.20;;;15.50;;
72117;SDS011;59992;47.490;8.736;2022-12-07T08:28:01;35.50;;;14.70;;
72117;SDS011;59992;47.490;8.736;2022-12-07T08:30:52;34.10;;;14.40;;
72117;SDS011;59992;47.490;8.736;2022-12-07T08:33:48;35.40;;;14.70;;
72117;SDS011;59992;47.490;8.736;2022-12-07T08:36:38;39.10;;;15.60;;
72117;SDS011;59992;47.490;8.736;2022-12-07T08:39:29;38.10;;;15.40;;
72117;SDS011;59992;47.490;8.736;2022-12-07T08:42:19;39.90;;;14.60;;
72117;SDS011;59992;47.490;8.736;2022-12-07T08:45:15;35.80;;;14.20;;
72117;SDS011;59992;47.490;8.736;2022-12-07T08:48:07;30.80;;;14.20;;
72117;SDS011;59992;47.490;8.736;2022-12-07T08:51:02;36.80;;;15.00;;
72117;SDS011;59992;47.490;8.736;2022-12-07T08:53:52;35.70;;;14.90;;
72117;SDS011;59992;47.490;8.736;2022-12-07T08:56:44;33.20;;;13.90;;
72117;SDS011;59992;47.490;8.736;2022-12-07T08:59:36;33.40;;;12.90;;
72117;SDS011;59992;47.490;8.736;2022-12-07T09:02:27;37.10;;;15.40;;
72117;SDS011;59992;47.490;8.736;2022-12-07T09:05:18;35.10;;;15.20;;
72117;SDS011;59992;47.490;8.736;2022-12-07T09:08:09;37.60;;;14.80;;
72117;SDS011;59992;47.490;8.736;2022-12-07T09:10:59;35.90;;;15.30;;
72117;SDS011;59992;47.490;8.736;2022-12-07T09:13:50;37.00;;;15.50;;
72117;SDS011;59992;47.490;8.736;2022-12-07T09:16:40;38.30;;;15.60;;
72117;SDS011;59992;47.490;8.736;2022-12-07T09:19:30;37.30;;;15.20;;
72117;SDS011;59992;47.490;8.736;2022-12-07T09:22:21;37.50;;;14.70;;
72117;SDS011;59992;47.490;8.736;2022-12-07T09:25:11;35.40;;;14.20;;
72117;SDS011;59992;47.490;8.736;2022-12-07T09:28:01;40.20;;;14.40;;
72117;SDS011;59992;47.490;8.736;2022-12-07T09:30:52;38.00;;;16.00;;
72117;SDS011;59992;47.490;8.736;2022-12-07T09:33:43;39.40;;;16.00;;
72117;SDS011;59992;47.490;8.736;2022-12-07T09:39:23;37.70;;;16.10;;
72117;SDS011;59992;47.490;8.736;2022-12-07T09:42:18;35.20;;;13.70;;
72117;SDS011;59992;47.490;8.736;2022-12-07T09:45:19;35.20;;;14.80;;
72117;SDS011;59992;47.490;8.736;2022-12-07T09:48:14;34.60;;;14.30;;
72117;SDS011;59992;47.490;8.736;2022-12-07T09:51:12;34.30;;;14.10;;
72117;SDS011;59992;47.490;8.736;2022-12-07T09:54:05;31.50;;;13.50;;
72117;SDS011;59992;47.490;8.736;2022-12-07T09:56:59;32.40;;;13.90;;
72117;SDS011;59992;47.490;8.736;2022-12-07T09:59:50;39.60;;;15.50;;
72117;SDS011;59992;47.490;8.736;2022-12-07T10:02:41;37.30;;;14.20;;
72117;SDS011;59992;47.490;8.736;2022-12-07T10:05:34;31.70;;;12.90;;
72117;SDS011;59992;47.490;8.736;2022-12-07T10:08:29;34.00;;;13.60;;
72117;SDS011;59992;47.490;8.736;2022-12-07T10:11:19;29.00;;;12.80;;
72117;SDS011;59992;47.490;8.736;2022-12-07T10:14:12;27.80;;;12.60;;
72117;SDS011;59992;47.490;8.736;2022-12-07T10:17:05;24.60;;;12.10;;
72117;SDS011;59992;47.490;8.736;2022-12-07T10:20:23;29.30;;;13.00;;
72117;SDS011;59992;47.490;8.736;2022-12-07T10:23:15;29.90;;;12.00;;
72117;SDS011;59992;47.490;8.736;2022-12-07T10:26:25;30.60;;;12.90;;
72117;SDS011;59992;47.490;8.736;2022-12-07T10:29:19;25.10;;;12.00;;
72117;SDS011;59992;47.490;8.736;2022-12-07T10:32:24;24.80;;;12.30;;
72117;SDS011;59992;47.490;8.736;2022-12-07T10:35:21;27.10;;;11.90;;
72117;SDS011;59992;47.490;8.736;2022-12-07T10:38:16;23.80;;;11.60;;
72117;SDS011;59992;47.490;8.736;2022-12-07T10:41:07;26.10;;;12.40;;
72117;SDS011;59992;47.490;8.736;2022-12-07T10:43:57;22.10;;;10.40;;
72117;SDS011;59992;47.490;8.736;2022-12-07T10:46:50;24.30;;;11.70;;
72117;SDS011;59992;47.490;8.736;2022-12-07T10:53:18;24.40;;;11.10;;
72117;SDS011;59992;47.490;8.736;2022-12-07T10:56:29;29.80;;;12.30;;
72117;SDS011;59992;47.490;8.736;2022-12-07T10:59:38;28.40;;;11.10;;
72117;SDS011;59992;47.490;8.736;2022-12-07T11:02:53;28.00;;;12.60;;
72117;SDS011;59992;47.490;8.736;2022-12-07T11:05:53;24.40;;;10.80;;
72117;SDS011;59992;47.490;8.736;2022-12-07T11:08:56;23.40;;;10.60;;
72117;SDS011;59992;47.490;8.736;2022-12-07T11:11:56;22.90;;;10.60;;
72117;SDS011;59992;47.490;8.736;2022-12-07T11:14:56;20.50;;;10.40;;
72117;SDS011;59992;47.490;8.736;2022-12-07T11:17:54;21.90;;;9.70;;
72117;SDS011;59992;47.490;8.736;2022-12-07T11:20:51;22.60;;;9.50;;
72117;SDS011;59992;47.490;8.736;2022-12-07T11:23:48;22.50;;;9.70;;
72117;SDS011;59992;47.490;8.736;2022-12-07T11:26:46;21.40;;;10.10;;
72117;SDS011;59992;47.490;8.736;2022-12-07T11:33:07;19.80;;;10.20;;
72117;SDS011;59992;47.490;8.736;2022-12-07T11:36:09;20.40;;;9.90;;
72117;SDS011;59992;47.490;8.736;2022-12-07T11:39:15;20.90;;;9.70;;
72117;SDS011;59992;47.490;8.736;2022-12-07T11:42:14;18.90;;;9.30;;
72117;SDS011;59992;47.490;8.736;2022-12-07T11:45:13;19.30;;;9.80;;
72117;SDS011;59992;47.490;8.736;2022-12-07T11:48:10;19.00;;;9.70;;
72117;SDS011;59992;47.490;8.736;2022-12-07T11:51:06;18.90;;;9.50;;
72117;SDS011;59992;47.490;8.736;2022-12-07T11:54:01;20.90;;;8.70;;
72117;SDS011;59992;47.490;8.736;2022-12-07T11:57:02;17.80;;;8.70;;
72117;SDS011;59992;47.490;8.736;2022-12-07T12:00:03;19.30;;;8.20;;
72117;SDS011;59992;47.490;8.736;2022-12-07T12:03:03;18.80;;;9.20;;
72117;SDS011;59992;47.490;8.736;2022-12-07T12:05:59;17.80;;;9.50;;
72117;SDS011;59992;47.490;8.736;2022-12-07T12:08:50;19.40;;;8.90;;
72117;SDS011;59992;47.490;8.736;2022-12-07T12:11:50;16.60;;;8.20;;
72117;SDS011;59992;47.490;8.736;2022-12-07T12:14:57;15.70;;;7.70;;
72117;SDS011;59992;47.490;8.736;2022-12-07T12:18:01;17.10;;;8.20;;
72117;SDS011;59992;47.490;8.736;2022-12-07T12:21:08;19.90;;;9.70;;
72117;SDS011;59992;47.490;8.736;2022-12-07T12:24:04;18.10;;;9.10;;
72117;SDS011;59992;47.490;8.736;2022-12-07T12:27:01;17.00;;;8.40;;
72117;SDS011;59992;47.490;8.736;2022-12-07T12:29:55;18.80;;;8.60;;
72117;SDS011;59992;47.490;8.736;2022-12-07T12:32:47;17.10;;;9.10;;
72117;SDS011;59992;47.490;8.736;2022-12-07T12:35:38;19.10;;;8.70;;
72117;SDS011;59992;47.490;8.736;2022-12-07T12:38:30;19.80;;;8.30;;
72117;SDS011;59992;47.490;8.736;2022-12-07T12:54:35;16.40;;;7.60;;
72117;SDS011;59992;47.490;8.736;2022-12-07T12:57:26;17.20;;;8.20;;
72117;SDS011;59992;47.490;8.736;2022-12-07T13:00:19;17.80;;;8.30;;
72117;SDS011;59992;47.490;8.736;2022-12-07T13:03:22;17.70;;;8.10;;
72117;SDS011;59992;47.490;8.736;2022-12-07T13:06:19;15.10;;;7.70;;
72117;SDS011;59992;47.490;8.736;2022-12-07T13:09:23;15.20;;;7.20;;
72117;SDS011;59992;47.490;8.736;2022-12-07T13:12:15;18.10;;;8.30;;
72117;SDS011;59992;47.490;8.736;2022-12-07T13:15:27;17.20;;;8.30;;
72117;SDS011;59992;47.490;8.736;2022-12-07T13:18:25;17.00;;;8.70;;
72117;SDS011;59992;47.490;8.736;2022-12-07T13:21:44;15.20;;;7.70;;
72117;SDS011;59992;47.490;8.736;2022-12-07T13:24:34;14.30;;;7.80;;
72117;SDS011;59992;47.490;8.736;2022-12-07T13:27:25;15.60;;;7.80;;
72117;SDS011;59992;47.490;8.736;2022-12-07T13:30:17;15.70;;;8.10;;
72117;SDS011;59992;47.490;8.736;2022-12-07T13:33:09;17.30;;;8.20;;
72117;SDS011;59992;47.490;8.736;2022-12-07T13:36:00;16.70;;;7.90;;
72117;SDS011;59992;47.490;8.736;2022-12-07T13:38:52;16.60;;;7.70;;
72117;SDS011;59992;47.490;8.736;2022-12-07T13:41:48;19.50;;;8.80;;
72117;SDS011;59992;47.490;8.736;2022-12-07T13:44:40;17.70;;;8.40;;
72117;SDS011;59992;47.490;8.736;2022-12-07T13:47:33;16.80;;;8.60;;
72117;SDS011;59992;47.490;8.736;2022-12-07T13:50:32;19.50;;;8.30;;
72117;SDS011;59992;47.490;8.736;2022-12-07T13:53:23;17.40;;;7.90;;
72117;SDS011;59992;47.490;8.736;2022-12-07T13:56:17;15.30;;;7.30;;
72117;SDS011;59992;47.490;8.736;2022-12-07T13:59:12;18.20;;;8.10;;
72117;SDS011;59992;47.490;8.736;2022-12-07T14:02:16;15.80;;;7.80;;
72117;SDS011;59992;47.490;8.736;2022-12-07T14:05:09;15.40;;;7.90;;
72117;SDS011;59992;47.490;8.736;2022-12-07T14:08:03;17.40;;;8.00;;
72117;SDS011;59992;47.490;8.736;2022-12-07T14:11:09;17.80;;;8.30;;
72117;SDS011;59992;47.490;8.736;2022-12-07T14:14:04;17.40;;;8.50;;
72117;SDS011;59992;47.490;8.736;2022-12-07T14:17:08;19.10;;;8.00;;
72117;SDS011;59992;47.490;8.736;2022-12-07T14:23:23;15.10;;;8.00;;
72117;SDS011;59992;47.490;8.736;2022-12-07T14:26:15;14.50;;;7.50;;
72117;SDS011;59992;47.490;8.736;2022-12-07T14:29:20;19.10;;;8.60;;
72117;SDS011;59992;47.490;8.736;2022-12-07T14:32:23;16.10;;;7.30;;
72117;SDS011;59992;47.490;8.736;2022-12-07T14:35:17;16.30;;;8.00;;
72117;SDS011;59992;47.490;8.736;2022-12-07T14:38:08;20.40;;;7.90;;
72117;SDS011;59992;47.490;8.736;2022-12-07T14:41:05;15.40;;;7.40;;
72117;SDS011;59992;47.490;8.736;2022-12-07T14:44:21;16.00;;;7.80;;
72117;SDS011;59992;47.490;8.736;2022-12-07T14:47:13;18.80;;;7.90;;
72117;SDS011;59992;47.490;8.736;2022-12-07T14:50:04;18.30;;;8.50;;
72117;SDS011;59992;47.490;8.736;2022-12-07T14:52:58;15.50;;;7.50;;
72117;SDS011;59992;47.490;8.736;2022-12-07T14:55:52;20.00;;;8.10;;
72117;SDS011;59992;47.490;8.736;2022-12-07T14:58:42;19.50;;;8.40;;
72117;SDS011;59992;47.490;8.736;2022-12-07T15:01:35;16.40;;;7.60;;
72117;SDS011;59992;47.490;8.736;2022-12-07T15:04:25;19.10;;;8.20;;
72117;SDS011;59992;47.490;8.736;2022-12-07T15:07:17;18.10;;;8.40;;
72117;SDS011;59992;47.490;8.736;2022-12-07T15:10:13;21.40;;;8.10;;
72117;SDS011;59992;47.490;8.736;2022-12-07T15:13:06;19.00;;;8.80;;
72117;SDS011;59992;47.490;8.736;2022-12-07T15:16:16;17.90;;;8.20;;
72117;SDS011;59992;47.490;8.736;2022-12-07T15:19:11;17.70;;;7.40;;
72117;SDS011;59992;47.490;8.736;2022-12-07T15:22:03;16.10;;;8.10;;
72117;SDS011;59992;47.490;8.736;2022-12-07T15:24:53;17.80;;;8.30;;
72117;SDS011;59992;47.490;8.736;2022-12-07T15:27:44;16.90;;;8.90;;
72117;SDS011;59992;47.490;8.736;2022-12-07T15:30:36;17.10;;;8.20;;
72117;SDS011;59992;47.490;8.736;2022-12-07T15:33:26;20.00;;;8.00;;
72117;SDS011;59992;47.490;8.736;2022-12-07T15:36:18;16.30;;;7.50;;
72117;SDS011;59992;47.490;8.736;2022-12-07T15:39:09;15.20;;;7.60;;
72117;SDS011;59992;47.490;8.736;2022-12-07T15:42:00;15.60;;;7.60;;
72117;SDS011;59992;47.490;8.736;2022-12-07T15:44:51;18.10;;;8.20;;
72117;SDS011;59992;47.490;8.736;2022-12-07T15:47:53;19.10;;;8.60;;
72117;SDS011;59992;47.490;8.736;2022-12-07T15:50:43;19.40;;;9.20;;
72117;SDS011;59992;47.490;8.736;2022-12-07T15:53:33;16.40;;;8.60;;
72117;SDS011;59992;47.490;8.736;2022-12-07T15:56:26;15.50;;;7.70;;
72117;SDS011;59992;47.490;8.736;2022-12-07T15:59:17;20.30;;;8.80;;
72117;SDS011;59992;47.490;8.736;2022-12-07T16:02:08;16.10;;;8.00;;
72117;SDS011;59992;47.490;8.736;2022-12-07T16:04:59;15.90;;;7.60;;
72117;SDS011;59992;47.490;8.736;2022-12-07T16:07:50;15.90;;;7.80;;
72117;SDS011;59992;47.490;8.736;2022-12-07T16:10:40;17.30;;;8.70;;
72117;SDS011;59992;47.490;8.736;2022-12-07T16:13:30;18.30;;;8.30;;
72117;SDS011;59992;47.490;8.736;2022-12-07T16:16:22;16.30;;;7.70;;
72117;SDS011;59992;47.490;8.736;2022-12-07T16:19:12;16.30;;;7.10;;
72117;SDS011;59992;47.490;8.736;2022-12-07T16:22:03;12.80;;;6.30;;
72117;SDS011;59992;47.490;8.736;2022-12-07T16:24:53;13.20;;;6.40;;
72117;SDS011;59992;47.490;8.736;2022-12-07T16:27:43;14.60;;;6.60;;
72117;SDS011;59992;47.490;8.736;2022-12-07T16:30:34;15.40;;;7.70;;
72117;SDS011;59992;47.490;8.736;2022-12-07T16:33:24;16.40;;;7.00;;
72117;SDS011;59992;47.490;8.736;2022-12-07T16:36:15;15.50;;;6.90;;
72117;SDS011;59992;47.490;8.736;2022-12-07T16:39:05;12.00;;;6.20;;
72117;SDS011;59992;47.490;8.736;2022-12-07T16:41:56;13.40;;;5.60;;
72117;SDS011;59992;47.490;8.736;2022-12-07T16:44:47;12.70;;;6.00;;
72117;SDS011;59992;47.490;8.736;2022-12-07T16:47:38;10.40;;;5.00;;
72117;SDS011;59992;47.490;8.736;2022-12-07T16:50:28;11.90;;;5.00;;
72117;SDS011;59992;47.490;8.736;2022-12-07T16:53:19;12.20;;;5.80;;
72117;SDS011;59992;47.490;8.736;2022-12-07T16:56:11;10.20;;;4.90;;
72117;SDS011;59992;47.490;8.736;2022-12-07T16:59:03;11.70;;;5.40;;
72117;SDS011;59992;47.490;8.736;2022-12-07T17:01:53;10.60;;;5.10;;
72117;SDS011;59992;47.490;8.736;2022-12-07T17:04:44;10.50;;;5.00;;
72117;SDS011;59992;47.490;8.736;2022-12-07T17:07:37;12.50;;;5.70;;
72117;SDS011;59992;47.490;8.736;2022-12-07T17:10:27;13.90;;;5.80;;
72117;SDS011;59992;47.490;8.736;2022-12-07T17:13:18;11.50;;;5.60;;
72117;SDS011;59992;47.490;8.736;2022-12-07T17:16:26;12.20;;;5.40;;
72117;SDS011;59992;47.490;8.736;2022-12-07T17:19:17;11.80;;;6.00;;
72117;SDS011;59992;47.490;8.736;2022-12-07T17:22:08;11.60;;;5.50;;
72117;SDS011;59992;47.490;8.736;2022-12-07T17:25:00;14.90;;;6.30;;
72117;SDS011;59992;47.490;8.736;2022-12-07T17:27:50;12.60;;;6.00;;
72117;SDS011;59992;47.490;8.736;2022-12-07T17:30:40;12.70;;;5.90;;